createdAt,value
2022-11-21T00:01:26.961Z,-3.66
2022-11-21T00:03:55.301Z,-3.70
2022-11-21T00:06:23.877Z,-3.71
2022-11-21T00:08:52.606Z,-3.73
2022-11-21T00:11:21.016Z,-3.76
2022-11-21T00:13:49.465Z,-3.78
2022-11-21T00:16:17.893Z,-3.81
2022-11-21T00:18:46.341Z,-3.83
2022-11-21T00:21:17.812Z,-3.84
2022-11-21T00:23:47.803Z,-3.85
2022-11-21T00:26:17.534Z,-3.86
2022-11-21T00:28:45.988Z,-3.88
2022-11-21T00:31:24.180Z,-3.88
2022-11-21T00:33:52.574Z,-3.88
2022-11-21T00:36:20.992Z,-3.88
2022-11-21T00:38:52.149Z,-3.86
2022-11-21T00:41:20.486Z,-3.84
2022-11-21T00:43:48.821Z,-3.81
2022-11-21T00:46:17.140Z,-3.78
2022-11-21T00:48:45.509Z,-3.72
2022-11-21T00:51:13.901Z,-3.65
2022-11-21T00:53:42.752Z,-3.59
2022-11-21T00:56:11.032Z,-3.52
2022-11-21T00:58:41.691Z,-3.45
2022-11-21T01:01:13.492Z,-3.39
2022-11-21T01:03:42.406Z,-3.31
2022-11-21T01:06:14.543Z,-3.26
2022-11-21T01:08:45.166Z,-3.19
2022-11-21T01:11:20.089Z,-3.12
2022-11-21T01:13:49.058Z,-3.07
2022-11-21T01:16:25.253Z,-3.00
2022-11-21T01:18:54.004Z,-2.93
2022-11-21T01:21:29.161Z,-2.87
2022-11-21T01:24:01.185Z,-2.81
2022-11-21T01:26:32.972Z,-2.76
2022-11-21T01:29:01.360Z,-2.73
2022-11-21T01:31:30.895Z,-2.69
2022-11-21T01:34:02.568Z,-2.66
2022-11-21T01:36:33.548Z,-2.61
2022-11-21T01:39:07.308Z,-2.53
2022-11-21T01:41:45.250Z,-2.46
2022-11-21T01:44:45.427Z,-2.38
2022-11-21T01:47:13.754Z,-2.29
2022-11-21T01:49:43.906Z,-2.21
2022-11-21T01:52:28.270Z,-2.14
2022-11-21T01:55:10.523Z,-2.06
2022-11-21T01:57:44.997Z,-2.00
2022-11-21T02:00:24.417Z,-1.94
2022-11-21T02:03:02.315Z,-1.87
2022-11-21T02:05:35.404Z,-1.79
2022-11-21T02:08:15.668Z,-1.72
2022-11-21T02:11:16.110Z,-1.65
2022-11-21T02:13:44.564Z,-1.57
2022-11-21T02:16:13.030Z,-1.50
2022-11-21T02:18:41.513Z,-1.43
2022-11-21T02:21:38.315Z,-1.36
2022-11-21T02:24:24.264Z,-1.29
2022-11-21T02:26:52.721Z,-1.22
2022-11-21T02:29:21.160Z,-1.16
2022-11-21T02:31:49.531Z,-1.10
2022-11-21T02:34:17.898Z,-1.06
2022-11-21T02:36:47.592Z,-1.03
2022-11-21T02:39:35.948Z,-1.02
2022-11-21T02:42:14.823Z,-0.99
2022-11-21T02:45:14.158Z,-0.96
2022-11-21T02:47:43.784Z,-0.93
2022-11-21T02:50:34.177Z,-0.90
2022-11-21T02:53:05.599Z,-0.86
2022-11-21T02:55:34.198Z,-0.84
2022-11-21T02:58:05.247Z,-0.81
2022-11-21T03:00:36.148Z,-0.79
2022-11-21T03:03:04.766Z,-0.75
2022-11-21T03:05:33.493Z,-0.73
2022-11-21T03:08:01.953Z,-0.70
2022-11-21T03:10:30.328Z,-0.66
2022-11-21T03:13:01.941Z,-0.61
2022-11-21T03:15:34.010Z,-0.57
2022-11-21T03:18:03.944Z,-0.52
2022-11-21T03:20:34.898Z,-0.49
2022-11-21T03:23:03.459Z,-0.46
2022-11-21T03:25:31.957Z,-0.43
2022-11-21T03:28:00.276Z,-0.40
2022-11-21T03:30:28.832Z,-0.37
2022-11-21T03:32:57.815Z,-0.33
2022-11-21T03:35:26.724Z,-0.29
2022-11-21T03:37:57.557Z,-0.23
2022-11-21T03:40:25.917Z,-0.20
2022-11-21T03:42:54.228Z,-0.19
2022-11-21T03:45:22.619Z,-0.16
2022-11-21T03:47:50.954Z,-0.14
2022-11-21T03:50:21.057Z,-0.13
2022-11-21T03:52:49.416Z,-0.13
2022-11-21T03:55:17.843Z,-0.13
2022-11-21T03:57:46.218Z,-0.12
2022-11-21T04:00:15.924Z,-0.12
2022-11-21T04:02:44.360Z,-0.12
2022-11-21T04:05:12.715Z,-0.11
2022-11-21T04:07:41.167Z,-0.10
2022-11-21T04:10:10.164Z,-0.10
2022-11-21T04:12:38.488Z,-0.11
2022-11-21T04:15:13.147Z,-0.12
2022-11-21T04:17:42.190Z,-0.15
2022-11-21T04:20:11.497Z,-0.17
2022-11-21T04:22:39.985Z,-0.19
2022-11-21T04:25:08.557Z,-0.20
2022-11-21T04:27:36.990Z,-0.21
2022-11-21T04:30:07.126Z,-0.21
2022-11-21T04:32:35.437Z,-0.23
2022-11-21T04:35:04.151Z,-0.23
2022-11-21T04:37:32.479Z,-0.24
2022-11-21T04:40:00.905Z,-0.25
2022-11-21T04:42:29.302Z,-0.27
2022-11-21T04:44:57.684Z,-0.27
2022-11-21T04:47:26.037Z,-0.26
2022-11-21T04:49:54.421Z,-0.26
2022-11-21T04:52:22.848Z,-0.26
2022-11-21T04:54:51.666Z,-0.27
2022-11-21T04:57:19.961Z,-0.28
2022-11-21T04:59:48.479Z,-0.29
2022-11-21T05:02:16.811Z,-0.30
2022-11-21T05:04:45.141Z,-0.30
2022-11-21T05:07:14.526Z,-0.29
2022-11-21T05:09:42.943Z,-0.29
2022-11-21T05:12:30.730Z,-0.27
2022-11-21T05:14:59.048Z,-0.25
2022-11-21T05:17:30.646Z,-0.23
2022-11-21T05:19:58.938Z,-0.21
2022-11-21T05:22:27.494Z,-0.19
2022-11-21T05:24:55.874Z,-0.18
2022-11-21T05:27:24.220Z,-0.15
2022-11-21T05:29:53.360Z,-0.12
2022-11-21T05:32:21.880Z,-0.10
2022-11-21T05:34:52.806Z,-0.09
2022-11-21T05:37:22.014Z,-0.06
2022-11-21T05:39:50.390Z,-0.03
2022-11-21T05:42:38.651Z,0.00
2022-11-21T05:45:08.094Z,0.05
2022-11-21T05:47:36.406Z,0.08
2022-11-21T05:50:05.317Z,0.09
2022-11-21T05:52:33.685Z,0.11
2022-11-21T05:55:02.039Z,0.14
2022-11-21T05:57:31.295Z,0.15
2022-11-21T05:59:59.682Z,0.15
2022-11-21T06:02:47.091Z,0.17
2022-11-21T06:05:15.534Z,0.18
2022-11-21T06:07:44.041Z,0.19
2022-11-21T06:10:12.405Z,0.19
2022-11-21T06:12:40.653Z,0.20
2022-11-21T06:15:09.566Z,0.18
2022-11-21T06:17:37.832Z,0.16
2022-11-21T06:20:07.042Z,0.14
2022-11-21T06:22:35.314Z,0.12
2022-11-21T06:25:03.914Z,0.10
2022-11-21T06:27:32.192Z,0.07
2022-11-21T06:30:03.993Z,0.05
2022-11-21T06:32:38.169Z,0.04
2022-11-21T06:35:07.033Z,0.03
2022-11-21T06:37:37.745Z,0.03
2022-11-21T06:40:06.906Z,0.04
2022-11-21T06:42:35.209Z,0.02
2022-11-21T06:45:04.705Z,0.01
2022-11-21T06:47:35.992Z,0.02
2022-11-21T06:50:04.623Z,0.03
2022-11-21T06:52:33.871Z,0.04
2022-11-21T06:55:03.087Z,0.06
2022-11-21T06:57:32.951Z,0.07
2022-11-21T07:00:01.317Z,0.09
2022-11-21T07:02:29.641Z,0.11
2022-11-21T07:04:57.934Z,0.13
2022-11-21T07:07:26.406Z,0.17
2022-11-21T07:10:00.081Z,0.20
2022-11-21T07:12:46.977Z,0.24
2022-11-21T07:15:15.934Z,0.29
2022-11-21T07:17:44.256Z,0.32
2022-11-21T07:20:13.525Z,0.37
2022-11-21T07:22:41.974Z,0.42
2022-11-21T07:25:13.029Z,0.47
2022-11-21T07:27:41.947Z,0.54
2022-11-21T07:30:11.087Z,0.61
2022-11-21T07:32:39.515Z,0.69
2022-11-21T07:35:09.894Z,0.77
2022-11-21T07:37:40.982Z,0.85
2022-11-21T07:40:09.791Z,0.92
2022-11-21T07:42:38.087Z,1.00
2022-11-21T07:45:07.093Z,1.09
2022-11-21T07:47:35.490Z,1.18
2022-11-21T07:50:05.903Z,1.27
2022-11-21T07:52:34.895Z,1.36
2022-11-21T07:55:06.321Z,1.46
2022-11-21T07:57:34.682Z,1.56
2022-11-21T08:00:03.766Z,1.66
2022-11-21T08:02:32.065Z,1.76
2022-11-21T08:05:00.385Z,1.84
2022-11-21T08:07:28.693Z,1.92
2022-11-21T08:09:57.371Z,2.03
2022-11-21T08:12:26.474Z,2.12
2022-11-21T08:14:54.930Z,2.22
2022-11-21T08:17:26.324Z,2.30
2022-11-21T08:19:54.760Z,2.39
2022-11-21T08:22:23.153Z,2.46
2022-11-21T08:24:51.490Z,2.52
2022-11-21T08:27:21.768Z,2.57
2022-11-21T08:29:50.703Z,2.64
2022-11-21T08:32:21.794Z,2.69
2022-11-21T08:34:50.158Z,2.74
2022-11-21T08:39:00.581Z,2.86
2022-11-21T08:41:47.618Z,2.92
2022-11-21T08:44:16.048Z,2.99
2022-11-21T08:46:44.594Z,3.05
2022-11-21T08:49:12.985Z,3.09
2022-11-21T08:51:41.510Z,3.13
2022-11-21T08:54:10.045Z,3.17
2022-11-21T08:56:38.522Z,3.19
2022-11-21T08:59:07.600Z,3.22
2022-11-21T09:01:36.073Z,3.24
2022-11-21T09:04:06.080Z,3.29
2022-11-21T09:06:35.265Z,3.34
2022-11-21T09:09:06.402Z,3.38
2022-11-21T09:11:37.623Z,3.42
2022-11-21T09:14:24.871Z,3.45
2022-11-21T09:17:12.212Z,3.48
2022-11-21T09:19:40.638Z,3.52
2022-11-21T09:22:09.045Z,3.56
2022-11-21T09:24:37.301Z,3.61
2022-11-21T09:27:05.623Z,3.69
2022-11-21T09:29:34.038Z,3.76
2022-11-21T09:32:02.459Z,3.79
2022-11-21T09:34:31.904Z,3.83
2022-11-21T09:37:00.385Z,3.87
2022-11-21T09:39:29.004Z,3.91
2022-11-21T09:42:19.218Z,3.98
2022-11-21T09:45:19.515Z,4.06
2022-11-21T09:47:52.491Z,4.15
2022-11-21T09:50:34.837Z,4.24
2022-11-21T09:53:19.217Z,4.35
2022-11-21T09:56:14.058Z,4.46
2022-11-21T09:58:50.489Z,4.56
2022-11-21T10:01:18.977Z,4.65
2022-11-21T10:07:30.433Z,4.79
2022-11-21T10:10:52.330Z,4.83
2022-11-21T10:14:00.615Z,4.87
2022-11-21T10:16:57.436Z,4.88
2022-11-21T10:19:59.543Z,4.90
2022-11-21T10:23:13.942Z,4.94
2022-11-21T10:25:57.384Z,5.06
2022-11-21T10:29:11.007Z,5.22
2022-11-21T10:31:42.882Z,5.39
2022-11-21T10:34:20.614Z,5.52
2022-11-21T10:36:56.492Z,5.66
2022-11-21T10:39:44.338Z,5.79
2022-11-21T10:42:36.365Z,5.91
2022-11-21T10:45:19.426Z,6.03
2022-11-21T10:47:51.192Z,6.12
2022-11-21T10:50:31.772Z,6.20
2022-11-21T10:53:36.232Z,6.25
2022-11-21T10:56:27.532Z,6.30
2022-11-21T10:58:59.395Z,6.32
2022-11-21T11:01:35.560Z,6.32
2022-11-21T11:07:20.278Z,6.27
2022-11-21T11:09:48.643Z,6.22
2022-11-21T11:12:46.099Z,6.19
2022-11-21T11:15:26.800Z,6.14
2022-11-21T11:18:09.449Z,6.15
2022-11-21T11:20:45.064Z,6.11
2022-11-21T11:23:26.952Z,6.04
2022-11-21T11:25:59.062Z,6.03
2022-11-21T11:28:37.179Z,6.02
2022-11-21T11:31:05.732Z,6.01
2022-11-21T11:33:51.205Z,5.97
2022-11-21T11:36:36.944Z,5.96
2022-11-21T11:39:38.494Z,5.92
2022-11-21T11:42:59.611Z,5.91
2022-11-21T11:46:07.314Z,5.93
2022-11-21T11:48:56.545Z,5.96
2022-11-21T11:51:37.159Z,5.97
2022-11-21T11:54:20.723Z,5.99
2022-11-21T11:56:49.891Z,6.04
2022-11-21T11:59:34.098Z,6.10
2022-11-21T12:02:33.732Z,6.16
2022-11-21T12:05:17.426Z,6.24
2022-11-21T12:11:29.914Z,6.37
2022-11-21T12:14:54.351Z,6.39
2022-11-21T12:17:33.835Z,6.38
2022-11-21T12:20:13.595Z,6.35
2022-11-21T12:22:42.832Z,6.29
2022-11-21T12:25:13.302Z,6.26
2022-11-21T12:27:42.792Z,6.26
2022-11-21T12:30:37.893Z,6.28
2022-11-21T12:33:20.098Z,6.28
2022-11-21T12:36:17.951Z,6.24
2022-11-21T12:39:29.753Z,6.22
2022-11-21T12:42:29.487Z,6.20
2022-11-21T12:45:29.039Z,6.15
2022-11-21T12:48:58.776Z,6.11
2022-11-21T12:52:04.069Z,6.04
2022-11-21T12:54:55.583Z,5.97
2022-11-21T12:58:01.203Z,5.90
2022-11-21T13:00:48.440Z,5.81
2022-11-21T13:03:44.783Z,5.72
2022-11-21T13:06:21.716Z,5.61
2022-11-21T13:08:52.955Z,5.50
2022-11-21T13:11:55.596Z,5.40
2022-11-21T13:15:04.625Z,5.29
2022-11-21T13:17:34.696Z,5.15
2022-11-21T13:20:24.350Z,5.06
2022-11-21T13:22:58.465Z,4.96
2022-11-21T13:25:32.854Z,4.87
2022-11-21T13:28:13.623Z,4.79
2022-11-21T13:30:48.474Z,4.69
2022-11-21T13:33:35.014Z,4.57
2022-11-21T13:36:10.376Z,4.43
2022-11-21T13:39:07.787Z,4.32
2022-11-21T13:41:54.828Z,4.18
2022-11-21T13:44:32.416Z,4.08
2022-11-21T13:47:30.919Z,4.01
2022-11-21T13:50:29.009Z,3.91
2022-11-21T13:53:17.762Z,3.84
2022-11-21T13:55:58.476Z,3.76
2022-11-21T13:58:50.313Z,3.70
2022-11-21T14:01:33.082Z,3.63
2022-11-21T14:04:38.829Z,3.57
2022-11-21T14:07:38.724Z,3.51
2022-11-21T14:10:25.435Z,3.46
2022-11-21T14:12:55.989Z,3.43
2022-11-21T14:15:40.192Z,3.40
2022-11-21T14:18:22.914Z,3.33
2022-11-21T14:21:02.159Z,3.26
2022-11-21T14:23:34.360Z,3.19
2022-11-21T14:26:14.768Z,3.13
2022-11-21T14:28:43.213Z,3.06
2022-11-21T14:31:13.210Z,2.99
2022-11-21T14:33:47.371Z,2.93
2022-11-21T14:36:31.642Z,2.87
2022-11-21T14:39:35.430Z,2.80
2022-11-21T14:41:59.406Z,2.71
2022-11-21T14:44:28.271Z,2.64
2022-11-21T14:47:26.575Z,2.60
2022-11-21T14:49:59.587Z,2.54
2022-11-21T14:52:32.807Z,2.50
2022-11-21T14:55:29.186Z,2.46
2022-11-21T14:57:57.674Z,2.42
2022-11-21T15:00:59.326Z,2.39
2022-11-21T15:03:23.830Z,2.34
2022-11-21T15:06:05.260Z,2.31
2022-11-21T15:09:18.418Z,2.28
2022-11-21T15:11:47.179Z,2.24
2022-11-21T15:14:24.246Z,2.20
2022-11-21T15:16:55.523Z,2.16
2022-11-21T15:19:32.649Z,2.14
2022-11-21T15:22:04.638Z,2.13
2022-11-21T15:24:43.931Z,2.11
2022-11-21T15:27:27.510Z,2.08
2022-11-21T15:30:07.478Z,2.06
2022-11-21T15:33:01.787Z,2.04
2022-11-21T15:35:54.696Z,2.01
2022-11-21T15:38:50.190Z,1.97
2022-11-21T15:41:18.474Z,1.94
2022-11-21T15:43:50.521Z,1.91
2022-11-21T15:46:30.172Z,1.89
2022-11-21T15:49:24.994Z,1.87
2022-11-21T15:52:06.577Z,1.85
2022-11-21T15:54:35.687Z,1.83
2022-11-21T15:57:04.135Z,1.81
2022-11-21T15:59:32.863Z,1.80
2022-11-21T16:02:01.360Z,1.76
2022-11-21T16:04:29.738Z,1.74
2022-11-21T16:06:58.135Z,1.71
2022-11-21T16:09:26.748Z,1.68
2022-11-21T16:11:55.340Z,1.63
2022-11-21T16:14:23.782Z,1.60
2022-11-21T16:16:52.186Z,1.56
2022-11-21T16:19:20.533Z,1.53
2022-11-21T16:21:48.863Z,1.50
2022-11-21T16:24:17.660Z,1.49
2022-11-21T16:26:47.044Z,1.49
2022-11-21T16:29:15.556Z,1.48
2022-11-21T16:31:43.990Z,1.47
2022-11-21T16:34:12.379Z,1.45
2022-11-21T16:36:40.664Z,1.43
2022-11-21T16:39:13.539Z,1.43
2022-11-21T16:41:46.114Z,1.43
2022-11-21T16:44:16.521Z,1.41
2022-11-21T16:46:49.174Z,1.40
2022-11-21T16:49:17.676Z,1.40
2022-11-21T16:51:46.367Z,1.38
2022-11-21T16:54:15.342Z,1.35
2022-11-21T16:56:43.754Z,1.33
2022-11-21T16:59:12.216Z,1.33
2022-11-21T17:01:40.694Z,1.32
2022-11-21T17:04:14.171Z,1.34
2022-11-21T17:06:47.170Z,1.36
2022-11-21T17:09:16.881Z,1.37
2022-11-21T17:11:45.270Z,1.40
2022-11-21T17:14:13.751Z,1.42
2022-11-21T17:16:42.118Z,1.44
2022-11-21T17:19:12.202Z,1.46
2022-11-21T17:21:40.715Z,1.47
2022-11-21T17:24:09.049Z,1.50
2022-11-21T17:28:42.328Z,1.56
2022-11-21T17:31:17.324Z,1.54
2022-11-21T17:33:50.291Z,1.53
2022-11-21T17:36:21.744Z,1.52
2022-11-21T17:38:51.505Z,1.50
2022-11-21T17:41:22.389Z,1.46
2022-11-21T17:43:57.480Z,1.43
2022-11-21T17:46:26.794Z,1.41
2022-11-21T17:49:27.123Z,1.42
2022-11-21T17:51:56.893Z,1.37
2022-11-21T17:54:25.906Z,1.36
2022-11-21T17:56:57.002Z,1.33
2022-11-21T17:59:27.517Z,1.30
2022-11-21T18:01:56.532Z,1.26
2022-11-21T18:04:25.142Z,1.23
2022-11-21T18:06:53.501Z,1.21
2022-11-21T18:09:21.877Z,1.20
2022-11-21T18:11:50.330Z,1.19
2022-11-21T18:14:18.890Z,1.17
2022-11-21T18:16:52.769Z,1.16
2022-11-21T18:19:22.428Z,1.16
2022-11-21T18:21:51.919Z,1.15
2022-11-21T18:24:20.591Z,1.14
2022-11-21T18:26:48.963Z,1.13
2022-11-21T18:31:59.027Z,1.15
2022-11-21T18:34:27.565Z,1.16
2022-11-21T18:36:56.426Z,1.17
2022-11-21T18:39:25.168Z,1.17
2022-11-21T18:41:55.655Z,1.17
2022-11-21T18:44:24.529Z,1.16
2022-11-21T18:46:52.885Z,1.15
2022-11-21T18:49:23.664Z,1.16
2022-11-21T18:51:52.206Z,1.17
2022-11-21T18:54:20.894Z,1.18
2022-11-21T18:56:49.306Z,1.20
2022-11-21T18:59:17.754Z,1.22
2022-11-21T19:01:46.294Z,1.25
2022-11-21T19:04:15.886Z,1.27
2022-11-21T19:06:44.253Z,1.28
2022-11-21T19:12:09.317Z,1.37
2022-11-21T19:14:37.653Z,1.38
2022-11-21T19:17:05.971Z,1.39
2022-11-21T19:19:35.735Z,1.39
2022-11-21T19:22:06.297Z,1.40
2022-11-21T19:24:35.749Z,1.39
2022-11-21T19:27:04.904Z,1.39
2022-11-21T19:29:33.569Z,1.40
2022-11-21T19:32:02.143Z,1.41
2022-11-21T19:34:30.470Z,1.42
2022-11-21T19:36:58.981Z,1.44
2022-11-21T19:39:29.510Z,1.46
2022-11-21T19:41:58.071Z,1.47
2022-11-21T19:44:26.566Z,1.49
2022-11-21T19:46:56.027Z,1.50
2022-11-21T19:49:24.415Z,1.52
2022-11-21T19:51:52.839Z,1.54
2022-11-21T19:54:22.429Z,1.55
2022-11-21T19:56:51.224Z,1.57
2022-11-21T19:59:19.871Z,1.59
2022-11-21T20:01:52.616Z,1.61
2022-11-21T20:04:21.595Z,1.62
2022-11-21T20:06:50.033Z,1.61
2022-11-21T20:09:21.922Z,1.62
2022-11-21T20:11:52.931Z,1.62
2022-11-21T20:14:23.051Z,1.62
2022-11-21T20:16:52.918Z,1.63
2022-11-21T20:19:24.688Z,1.61
2022-11-21T20:21:54.147Z,1.60
2022-11-21T20:24:22.712Z,1.60
2022-11-21T20:26:51.111Z,1.60
2022-11-21T20:29:19.471Z,1.60
2022-11-21T20:31:48.496Z,1.61
2022-11-21T20:34:17.173Z,1.61
2022-11-21T20:36:46.934Z,1.62
2022-11-21T20:39:18.014Z,1.61
2022-11-21T20:41:48.219Z,1.60
2022-11-21T20:47:10.250Z,1.59
2022-11-21T20:49:38.925Z,1.59
2022-11-21T20:54:55.755Z,1.60
2022-11-21T20:57:24.100Z,1.59
2022-11-21T21:01:47.240Z,1.61
2022-11-21T21:04:15.606Z,1.61
2022-11-21T21:06:43.989Z,1.62
2022-11-21T21:09:12.333Z,1.61
2022-11-21T21:11:55.911Z,1.60
2022-11-21T21:14:24.374Z,1.59
2022-11-21T21:16:52.717Z,1.58
2022-11-21T21:19:21.826Z,1.59
2022-11-21T21:21:50.239Z,1.59
2022-11-21T21:24:18.955Z,1.59
2022-11-21T21:26:49.099Z,1.59
2022-11-21T21:29:20.371Z,1.59
2022-11-21T21:31:51.979Z,1.58
2022-11-21T21:34:22.650Z,1.57
2022-11-21T21:36:51.462Z,1.55
2022-11-21T21:39:19.915Z,1.53
2022-11-21T21:41:49.079Z,1.51
2022-11-21T21:44:17.491Z,1.49
2022-11-21T21:46:46.023Z,1.48
2022-11-21T21:49:14.602Z,1.48
2022-11-21T21:51:43.292Z,1.48
2022-11-21T21:54:20.598Z,1.46
2022-11-21T21:56:50.474Z,1.45
2022-11-21T21:59:19.807Z,1.42
2022-11-21T22:01:49.144Z,1.40
2022-11-21T22:04:17.761Z,1.41
2022-11-21T22:06:46.193Z,1.41
2022-11-21T22:09:14.614Z,1.42
2022-11-21T22:11:43.019Z,1.40
2022-11-21T22:14:14.894Z,1.39
2022-11-21T22:16:44.380Z,1.37
2022-11-21T22:19:12.803Z,1.37
2022-11-21T22:21:41.197Z,1.38
2022-11-21T22:24:27.185Z,1.37
2022-11-21T22:26:56.258Z,1.36
2022-11-21T22:29:25.246Z,1.33
2022-11-21T22:31:53.884Z,1.34
2022-11-21T22:34:22.707Z,1.32
2022-11-21T22:36:51.714Z,1.32
2022-11-21T22:39:20.216Z,1.33
2022-11-21T22:41:48.645Z,1.33
2022-11-21T22:44:17.294Z,1.31
2022-11-21T22:46:45.673Z,1.30
2022-11-21T22:49:14.531Z,1.31
2022-11-21T22:51:44.105Z,1.31
2022-11-21T22:54:13.140Z,1.30
2022-11-21T22:56:41.615Z,1.30
2022-11-21T22:59:14.067Z,1.28
2022-11-21T23:01:42.454Z,1.29
2022-11-21T23:04:16.097Z,1.31
2022-11-21T23:06:45.914Z,1.32
2022-11-21T23:09:14.523Z,1.32
2022-11-21T23:11:42.976Z,1.32
2022-11-21T23:14:11.420Z,1.33
2022-11-21T23:16:39.735Z,1.33
2022-11-21T23:19:08.278Z,1.33
2022-11-21T23:21:36.708Z,1.33
2022-11-21T23:24:05.648Z,1.33
2022-11-21T23:26:34.012Z,1.33
2022-11-21T23:29:07.975Z,1.33
2022-11-21T23:31:36.924Z,1.35
2022-11-21T23:34:05.514Z,1.37
2022-11-21T23:36:33.965Z,1.39
2022-11-21T23:39:02.757Z,1.42
2022-11-21T23:41:31.130Z,1.45
2022-11-21T23:44:00.009Z,1.46
2022-11-21T23:46:30.228Z,1.48
2022-11-21T23:48:58.726Z,1.50
2022-11-21T23:51:27.064Z,1.51
2022-11-21T23:53:55.536Z,1.52
2022-11-21T23:56:23.922Z,1.53
2022-11-21T23:58:52.285Z,1.55
